sensor_id;sensor_type;location;lat;lon;timestamp;pressure;altitude;pressure_sealevel;temperature;humidity
15678;BME280;7939;50.814;6.368;2023-04-02T00:00:04;99082.09;;;12.65;68.48
15678;BME280;7939;50.814;6.368;2023-04-02T00:02:45;99090.00;;;12.53;67.80
15678;BME280;7939;50.814;6.368;2023-04-02T00:05:30;99084.50;;;12.73;68.37
15678;BME280;7939;50.814;6.368;2023-04-02T00:08:00;99090.38;;;12.78;67.14
15678;BME280;7939;50.814;6.368;2023-04-02T00:10:31;99102.81;;;12.53;67.52
15678;BME280;7939;50.814;6.368;2023-04-02T00:13:01;99098.22;;;12.69;67.14
15678;BME280;7939;50.814;6.368;2023-04-02T00:15:28;99106.66;;;12.76;67.48
15678;BME280;7939;50.814;6.368;2023-04-02T00:17:55;99117.69;;;12.79;67.19
15678;BME280;7939;50.814;6.368;2023-04-02T00:20:24;99118.78;;;12.67;66.87
15678;BME280;7939;50.814;6.368;2023-04-02T00:22:51;99126.91;;;12.43;68.37
15678;BME280;7939;50.814;6.368;2023-04-02T00:25:19;99124.81;;;12.65;66.61
15678;BME280;7939;50.814;6.368;2023-04-02T00:27:47;99130.25;;;12.48;67.09
15678;BME280;7939;50.814;6.368;2023-04-02T00:30:14;99134.56;;;12.46;67.75
15678;BME280;7939;50.814;6.368;2023-04-02T00:32:41;99134.97;;;12.23;68.32
15678;BME280;7939;50.814;6.368;2023-04-02T00:35:11;99140.28;;;12.60;68.02
15678;BME280;7939;50.814;6.368;2023-04-02T00:37:42;99150.81;;;12.43;67.00
15678;BME280;7939;50.814;6.368;2023-04-02T00:40:15;99151.03;;;12.31;67.59
15678;BME280;7939;50.814;6.368;2023-04-02T00:42:46;99153.66;;;12.28;67.65
15678;BME280;7939;50.814;6.368;2023-04-02T00:45:18;99154.84;;;12.09;68.04
15678;BME280;7939;50.814;6.368;2023-04-02T00:47:48;99167.16;;;12.38;67.20
15678;BME280;7939;50.814;6.368;2023-04-02T00:50:19;99162.44;;;12.15;67.53
15678;BME280;7939;50.814;6.368;2023-04-02T00:52:49;99165.13;;;12.06;67.80
15678;BME280;7939;50.814;6.368;2023-04-02T00:55:21;99169.56;;;11.96;67.57
15678;BME280;7939;50.814;6.368;2023-04-02T00:57:51;99171.22;;;11.99;68.26
15678;BME280;7939;50.814;6.368;2023-04-02T01:00:20;99175.72;;;11.81;67.81
15678;BME280;7939;50.814;6.368;2023-04-02T01:03:14;99175.97;;;11.65;67.46
15678;BME280;7939;50.814;6.368;2023-04-02T01:05:56;99177.28;;;11.95;67.55
15678;BME280;7939;50.814;6.368;2023-04-02T01:11:42;99186.78;;;11.85;67.45
15678;BME280;7939;50.814;6.368;2023-04-02T01:14:18;99197.81;;;11.90;67.09
15678;BME280;7939;50.814;6.368;2023-04-02T01:16:51;99194.41;;;11.90;66.52
15678;BME280;7939;50.814;6.368;2023-04-02T01:19:41;99198.94;;;11.68;67.47
15678;BME280;7939;50.814;6.368;2023-04-02T01:22:18;99203.03;;;11.79;67.26
15678;BME280;7939;50.814;6.368;2023-04-02T01:24:48;99201.50;;;11.69;67.35
15678;BME280;7939;50.814;6.368;2023-04-02T01:27:17;99202.19;;;11.79;67.34
15678;BME280;7939;50.814;6.368;2023-04-02T01:29:50;99204.09;;;11.66;68.01
15678;BME280;7939;50.814;6.368;2023-04-02T01:32:21;99206.16;;;11.40;67.38
15678;BME280;7939;50.814;6.368;2023-04-02T01:34:49;99210.81;;;11.73;66.99
15678;BME280;7939;50.814;6.368;2023-04-02T01:37:25;99215.13;;;11.71;67.25
15678;BME280;7939;50.814;6.368;2023-04-02T01:40:05;99226.66;;;11.38;68.01
15678;BME280;7939;50.814;6.368;2023-04-02T01:42:39;99227.94;;;11.68;67.58
15678;BME280;7939;50.814;6.368;2023-04-02T01:45:12;99236.53;;;11.64;67.71
15678;BME280;7939;50.814;6.368;2023-04-02T01:47:40;99232.00;;;11.86;66.73
15678;BME280;7939;50.814;6.368;2023-04-02T01:50:22;99242.47;;;11.66;67.06
15678;BME280;7939;50.814;6.368;2023-04-02T01:52:52;99240.56;;;11.85;66.84
15678;BME280;7939;50.814;6.368;2023-04-02T01:55:27;99246.09;;;11.50;67.47
15678;BME280;7939;50.814;6.368;2023-04-02T01:57:56;99254.72;;;11.43;67.63
15678;BME280;7939;50.814;6.368;2023-04-02T02:00:26;99259.81;;;11.44;67.15
15678;BME280;7939;50.814;6.368;2023-04-02T02:02:54;99275.28;;;11.33;68.24
15678;BME280;7939;50.814;6.368;2023-04-02T02:05:22;99272.97;;;11.14;68.06
15678;BME280;7939;50.814;6.368;2023-04-02T02:07:49;99277.81;;;11.35;67.65
15678;BME280;7939;50.814;6.368;2023-04-02T02:10:22;99289.00;;;11.25;67.87
15678;BME280;7939;50.814;6.368;2023-04-02T02:12:50;99285.34;;;11.49;67.24
15678;BME280;7939;50.814;6.368;2023-04-02T02:15:19;99290.13;;;10.99;67.36
15678;BME280;7939;50.814;6.368;2023-04-02T02:17:47;99294.06;;;11.31;67.53
15678;BME280;7939;50.814;6.368;2023-04-02T02:20:15;99294.72;;;11.51;66.20
15678;BME280;7939;50.814;6.368;2023-04-02T02:22:43;99301.69;;;11.35;66.80
15678;BME280;7939;50.814;6.368;2023-04-02T02:25:13;99301.81;;;11.26;66.75
15678;BME280;7939;50.814;6.368;2023-04-02T02:27:45;99312.72;;;11.41;66.57
15678;BME280;7939;50.814;6.368;2023-04-02T02:30:15;99306.91;;;11.28;66.88
15678;BME280;7939;50.814;6.368;2023-04-02T02:32:51;99315.47;;;11.25;66.68
15678;BME280;7939;50.814;6.368;2023-04-02T02:35:21;99325.66;;;11.27;67.58
15678;BME280;7939;50.814;6.368;2023-04-02T02:37:53;99337.44;;;11.42;67.17
15678;BME280;7939;50.814;6.368;2023-04-02T02:40:26;99337.84;;;11.02;67.16
15678;BME280;7939;50.814;6.368;2023-04-02T02:42:57;99349.84;;;10.95;67.94
15678;BME280;7939;50.814;6.368;2023-04-02T02:45:28;99350.69;;;10.93;67.48
15678;BME280;7939;50.814;6.368;2023-04-02T02:48:00;99353.19;;;11.00;67.19
15678;BME280;7939;50.814;6.368;2023-04-02T02:50:29;99362.47;;;11.14;67.07
15678;BME280;7939;50.814;6.368;2023-04-02T02:52:58;99364.09;;;11.21;66.66
15678;BME280;7939;50.814;6.368;2023-04-02T02:55:27;99376.03;;;11.20;67.02
15678;BME280;7939;50.814;6.368;2023-04-02T02:58:00;99372.63;;;11.20;66.91
15678;BME280;7939;50.814;6.368;2023-04-02T03:00:29;99375.00;;;11.37;67.04
15678;BME280;7939;50.814;6.368;2023-04-02T03:02:56;99383.47;;;11.43;66.21
15678;BME280;7939;50.814;6.368;2023-04-02T03:05:26;99381.72;;;11.51;66.15
15678;BME280;7939;50.814;6.368;2023-04-02T03:07:55;99380.69;;;11.66;66.32
15678;BME280;7939;50.814;6.368;2023-04-02T03:10:29;99390.25;;;11.49;65.53
15678;BME280;7939;50.814;6.368;2023-04-02T03:13:04;99395.41;;;11.46;66.21
15678;BME280;7939;50.814;6.368;2023-04-02T03:15:36;99398.84;;;11.42;65.80
15678;BME280;7939;50.814;6.368;2023-04-02T03:18:10;99408.28;;;11.38;66.12
15678;BME280;7939;50.814;6.368;2023-04-02T03:20:46;99415.00;;;11.47;65.31
15678;BME280;7939;50.814;6.368;2023-04-02T03:23:17;99423.78;;;11.20;65.42
15678;BME280;7939;50.814;6.368;2023-04-02T03:25:47;99426.31;;;11.21;64.99
15678;BME280;7939;50.814;6.368;2023-04-02T03:28:20;99426.97;;;11.46;64.93
15678;BME280;7939;50.814;6.368;2023-04-02T03:30:50;99439.78;;;11.42;65.30
15678;BME280;7939;50.814;6.368;2023-04-02T03:33:23;99438.72;;;11.62;65.58
15678;BME280;7939;50.814;6.368;2023-04-02T03:35:56;99443.72;;;11.75;65.71
15678;BME280;7939;50.814;6.368;2023-04-02T03:38:27;99454.13;;;11.56;65.26
15678;BME280;7939;50.814;6.368;2023-04-02T03:41:02;99461.91;;;11.50;64.89
15678;BME280;7939;50.814;6.368;2023-04-02T03:43:33;99463.53;;;11.57;64.60
15678;BME280;7939;50.814;6.368;2023-04-02T03:46:12;99473.72;;;11.64;64.73
15678;BME280;7939;50.814;6.368;2023-04-02T03:48:44;99475.41;;;11.61;65.48
15678;BME280;7939;50.814;6.368;2023-04-02T03:51:17;99478.69;;;11.77;65.25
15678;BME280;7939;50.814;6.368;2023-04-02T03:53:46;99486.53;;;11.59;64.26
15678;BME280;7939;50.814;6.368;2023-04-02T03:56:22;99491.69;;;11.54;65.43
15678;BME280;7939;50.814;6.368;2023-04-02T03:58:59;99502.09;;;11.34;65.14
15678;BME280;7939;50.814;6.368;2023-04-02T04:01:32;99500.31;;;11.43;65.10
15678;BME280;7939;50.814;6.368;2023-04-02T04:04:04;99511.47;;;11.34;65.02
15678;BME280;7939;50.814;6.368;2023-04-02T04:06:36;99519.25;;;11.22;64.98
15678;BME280;7939;50.814;6.368;2023-04-02T04:09:09;99519.97;;;11.36;64.83
15678;BME280;7939;50.814;6.368;2023-04-02T04:11:38;99525.88;;;11.50;64.72
15678;BME280;7939;50.814;6.368;2023-04-02T04:14:15;99535.31;;;11.38;64.64
15678;BME280;7939;50.814;6.368;2023-04-02T04:16:47;99540.44;;;11.39;64.18
15678;BME280;7939;50.814;6.368;2023-04-02T04:19:21;99554.28;;;11.04;64.87
15678;BME280;7939;50.814;6.368;2023-04-02T04:22:07;99552.47;;;11.28;64.53
15678;BME280;7939;50.814;6.368;2023-04-02T04:24:34;99561.03;;;11.21;65.19
15678;BME280;7939;50.814;6.368;2023-04-02T04:27:06;99566.09;;;11.31;64.97
15678;BME280;7939;50.814;6.368;2023-04-02T04:29:40;99566.06;;;11.30;64.46
15678;BME280;7939;50.814;6.368;2023-04-02T04:32:21;99579.81;;;11.15;65.07
15678;BME280;7939;50.814;6.368;2023-04-02T04:34:54;99584.78;;;11.41;64.42
15678;BME280;7939;50.814;6.368;2023-04-02T04:37:27;99585.63;;;11.45;64.42
15678;BME280;7939;50.814;6.368;2023-04-02T04:40:01;99594.06;;;11.53;63.83
15678;BME280;7939;50.814;6.368;2023-04-02T04:42:33;99601.00;;;11.39;64.08
15678;BME280;7939;50.814;6.368;2023-04-02T04:45:07;99606.09;;;11.40;64.19
15678;BME280;7939;50.814;6.368;2023-04-02T04:47:37;99615.50;;;11.40;64.63
15678;BME280;7939;50.814;6.368;2023-04-02T04:50:07;99618.97;;;11.26;63.90
15678;BME280;7939;50.814;6.368;2023-04-02T04:52:41;99630.13;;;11.05;65.02
15678;BME280;7939;50.814;6.368;2023-04-02T04:55:26;99622.53;;;10.96;64.91
15678;BME280;7939;50.814;6.368;2023-04-02T04:57:56;99625.13;;;10.89;64.76
15678;BME280;7939;50.814;6.368;2023-04-02T05:00:29;99634.59;;;10.50;65.66
15678;BME280;7939;50.814;6.368;2023-04-02T05:03:05;99637.94;;;10.67;65.89
15678;BME280;7939;50.814;6.368;2023-04-02T05:05:37;99648.94;;;10.92;65.19
15678;BME280;7939;50.814;6.368;2023-04-02T05:08:13;99653.25;;;10.84;64.84
15678;BME280;7939;50.814;6.368;2023-04-02T05:10:43;99660.00;;;10.99;65.39
15678;BME280;7939;50.814;6.368;2023-04-02T05:13:15;99661.69;;;11.04;64.62
15678;BME280;7939;50.814;6.368;2023-04-02T05:15:49;99665.97;;;10.98;64.73
15678;BME280;7939;50.814;6.368;2023-04-02T05:18:23;99675.44;;;10.76;64.97
15678;BME280;7939;50.814;6.368;2023-04-02T05:20:56;99678.00;;;10.70;64.85
15678;BME280;7939;50.814;6.368;2023-04-02T05:23:28;99683.06;;;10.94;64.53
15678;BME280;7939;50.814;6.368;2023-04-02T05:26:01;99688.16;;;10.94;64.13
15678;BME280;7939;50.814;6.368;2023-04-02T05:28:34;99697.53;;;10.95;64.25
15678;BME280;7939;50.814;6.368;2023-04-02T05:31:06;99700.88;;;11.13;64.91
15678;BME280;7939;50.814;6.368;2023-04-02T05:33:36;99705.16;;;11.09;64.41
15678;BME280;7939;50.814;6.368;2023-04-02T05:36:07;99702.63;;;10.98;63.87
15678;BME280;7939;50.814;6.368;2023-04-02T05:38:39;99717.94;;;11.14;63.88
15678;BME280;7939;50.814;6.368;2023-04-02T05:41:20;99723.91;;;11.03;64.53
15678;BME280;7939;50.814;6.368;2023-04-02T05:43:57;99725.63;;;11.04;64.27
15678;BME280;7939;50.814;6.368;2023-04-02T05:46:30;99733.28;;;11.14;64.19
15678;BME280;7939;50.814;6.368;2023-04-02T05:48:59;99736.72;;;10.91;64.49
15678;BME280;7939;50.814;6.368;2023-04-02T05:51:34;99740.13;;;10.92;64.28
15678;BME280;7939;50.814;6.368;2023-04-02T05:54:04;99746.09;;;10.98;64.75
15678;BME280;7939;50.814;6.368;2023-04-02T05:56:36;99751.22;;;10.85;64.45
15678;BME280;7939;50.814;6.368;2023-04-02T05:59:10;99758.91;;;10.66;64.89
15678;BME280;7939;50.814;6.368;2023-04-02T06:01:39;99766.59;;;10.51;64.77
15678;BME280;7939;50.814;6.368;2023-04-02T06:04:17;99775.09;;;10.39;64.88
15678;BME280;7939;50.814;6.368;2023-04-02T06:06:50;99771.72;;;10.37;64.78
15678;BME280;7939;50.814;6.368;2023-04-02T06:09:26;99776.81;;;10.48;64.99
15678;BME280;7939;50.814;6.368;2023-04-02T06:11:59;99784.47;;;10.26;65.11
15678;BME280;7939;50.814;6.368;2023-04-02T06:14:28;99796.38;;;10.35;65.17
15678;BME280;7939;50.814;6.368;2023-04-02T06:16:55;99799.72;;;10.17;65.67
15678;BME280;7939;50.814;6.368;2023-04-02T06:19:24;99796.31;;;10.17;64.77
15678;BME280;7939;50.814;6.368;2023-04-02T06:21:58;99805.69;;;10.13;65.11
15678;BME280;7939;50.814;6.368;2023-04-02T06:24:28;99819.38;;;10.24;64.68
15678;BME280;7939;50.814;6.368;2023-04-02T06:26:59;99821.00;;;10.10;65.13
15678;BME280;7939;50.814;6.368;2023-04-02T06:29:32;99824.50;;;10.32;64.89
15678;BME280;7939;50.814;6.368;2023-04-02T06:32:05;99824.38;;;10.02;64.91
15678;BME280;7939;50.814;6.368;2023-04-02T06:34:35;99836.41;;;10.27;64.47
15678;BME280;7939;50.814;6.368;2023-04-02T06:37:04;99833.78;;;10.22;64.75
15678;BME280;7939;50.814;6.368;2023-04-02T06:39:39;99847.34;;;10.03;65.05
15678;BME280;7939;50.814;6.368;2023-04-02T06:42:11;99848.25;;;10.20;64.49
15678;BME280;7939;50.814;6.368;2023-04-02T06:44:39;99856.84;;;10.38;63.93
15678;BME280;7939;50.814;6.368;2023-04-02T06:47:11;99871.28;;;10.28;64.13
15678;BME280;7939;50.814;6.368;2023-04-02T06:49:41;99866.13;;;10.14;64.24
15678;BME280;7939;50.814;6.368;2023-04-02T06:52:14;99874.63;;;10.06;64.55
15678;BME280;7939;50.814;6.368;2023-04-02T06:54:46;99882.38;;;10.25;64.35
15678;BME280;7939;50.814;6.368;2023-04-02T06:57:13;99883.97;;;10.10;64.21
15678;BME280;7939;50.814;6.368;2023-04-02T06:59:40;99895.19;;;10.38;64.18
15678;BME280;7939;50.814;6.368;2023-04-02T07:02:21;99901.88;;;10.22;63.94
15678;BME280;7939;50.814;6.368;2023-04-02T07:04:50;99901.97;;;10.39;64.11
15678;BME280;7939;50.814;6.368;2023-04-02T07:07:18;99909.53;;;10.14;63.80
15678;BME280;7939;50.814;6.368;2023-04-02T07:09:46;99919.75;;;10.17;64.08
15678;BME280;7939;50.814;6.368;2023-04-02T07:12:13;99927.50;;;10.36;64.41
15678;BME280;7939;50.814;6.368;2023-04-02T07:14:40;99929.22;;;10.32;63.88
15678;BME280;7939;50.814;6.368;2023-04-02T07:17:13;99933.38;;;10.22;64.03
15678;BME280;7939;50.814;6.368;2023-04-02T07:19:41;99945.38;;;10.25;63.35
15678;BME280;7939;50.814;6.368;2023-04-02T07:22:09;99952.19;;;10.35;63.83
15678;BME280;7939;50.814;6.368;2023-04-02T07:24:36;99962.38;;;10.29;63.60
15678;BME280;7939;50.814;6.368;2023-04-02T07:27:04;99955.63;;;10.40;63.58
15678;BME280;7939;50.814;6.368;2023-04-02T07:29:31;99959.06;;;10.47;63.44
15678;BME280;7939;50.814;6.368;2023-04-02T07:31:58;99962.34;;;10.21;63.61
15678;BME280;7939;50.814;6.368;2023-04-02T07:34:24;99969.22;;;10.35;63.38
15678;BME280;7939;50.814;6.368;2023-04-02T07:36:51;99974.31;;;10.25;63.94
15678;BME280;7939;50.814;6.368;2023-04-02T07:39:18;99979.41;;;10.25;63.69
15678;BME280;7939;50.814;6.368;2023-04-02T07:41:51;99983.69;;;10.25;63.98
15678;BME280;7939;50.814;6.368;2023-04-02T07:44:20;99985.34;;;10.23;64.07
15678;BME280;7939;50.814;6.368;2023-04-02T07:46:46;99988.81;;;10.36;63.43
15678;BME280;7939;50.814;6.368;2023-04-02T07:49:13;99993.94;;;10.40;63.48
15678;BME280;7939;50.814;6.368;2023-04-02T07:51:40;100002.47;;;10.41;63.52
15678;BME280;7939;50.814;6.368;2023-04-02T07:54:07;100009.97;;;10.16;63.27
15678;BME280;7939;50.814;6.368;2023-04-02T07:56:35;100013.47;;;10.26;63.46
15678;BME280;7939;50.814;6.368;2023-04-02T07:59:03;100001.59;;;10.42;63.47
15678;BME280;7939;50.814;6.368;2023-04-02T08:01:31;100019.47;;;10.36;63.67
15678;BME280;7939;50.814;6.368;2023-04-02T08:04:00;100021.22;;;10.44;63.68
15678;BME280;7939;50.814;6.368;2023-04-02T08:06:28;100023.75;;;10.40;63.16
15678;BME280;7939;50.814;6.368;2023-04-02T08:08:55;100034.78;;;10.36;63.32
15678;BME280;7939;50.814;6.368;2023-04-02T08:11:22;100040.81;;;10.48;63.09
15678;BME280;7939;50.814;6.368;2023-04-02T08:13:49;100054.50;;;10.57;63.00
15678;BME280;7939;50.814;6.368;2023-04-02T08:16:16;100062.13;;;10.53;63.11
15678;BME280;7939;50.814;6.368;2023-04-02T08:18:44;100049.25;;;10.37;62.83
15678;BME280;7939;50.814;6.368;2023-04-02T08:21:12;100066.28;;;10.33;63.44
15678;BME280;7939;50.814;6.368;2023-04-02T08:23:38;100072.03;;;10.05;63.40
15678;BME280;7939;50.814;6.368;2023-04-02T08:26:05;100072.84;;;9.96;63.75
15678;BME280;7939;50.814;6.368;2023-04-02T08:28:32;100084.88;;;10.17;63.63
15678;BME280;7939;50.814;6.368;2023-04-02T08:30:59;100088.28;;;10.16;63.34
15678;BME280;7939;50.814;6.368;2023-04-02T08:33:25;100093.28;;;10.00;63.93
15678;BME280;7939;50.814;6.368;2023-04-02T08:35:54;100101.81;;;10.01;63.87
15678;BME280;7939;50.814;6.368;2023-04-02T08:38:21;100105.13;;;9.88;63.22
15678;BME280;7939;50.814;6.368;2023-04-02T08:40:49;100105.25;;;10.11;63.08
15678;BME280;7939;50.814;6.368;2023-04-02T08:43:33;100113.84;;;10.19;63.48
15678;BME280;7939;50.814;6.368;2023-04-02T08:46:10;100110.53;;;10.24;63.35
15678;BME280;7939;50.814;6.368;2023-04-02T08:48:42;100113.09;;;10.29;63.34
15678;BME280;7939;50.814;6.368;2023-04-02T08:51:19;100117.97;;;10.03;63.62
15678;BME280;7939;50.814;6.368;2023-04-02T08:53:47;100122.34;;;10.18;63.08
15678;BME280;7939;50.814;6.368;2023-04-02T08:56:17;100127.44;;;10.13;62.99
15678;BME280;7939;50.814;6.368;2023-04-02T08:58:48;100130.00;;;10.16;63.13
15678;BME280;7939;50.814;6.368;2023-04-02T09:01:23;100138.50;;;10.17;62.45
15678;BME280;7939;50.814;6.368;2023-04-02T09:03:55;100150.47;;;10.21;63.15
15678;BME280;7939;50.814;6.368;2023-04-02T09:06:25;100151.22;;;10.09;63.18
15678;BME280;7939;50.814;6.368;2023-04-02T09:08:54;100149.47;;;10.00;63.29
15678;BME280;7939;50.814;6.368;2023-04-02T09:11:24;100162.28;;;10.08;63.15
15678;BME280;7939;50.814;6.368;2023-04-02T09:13:58;100160.50;;;9.98;63.70
15678;BME280;7939;50.814;6.368;2023-04-02T09:16:36;100162.28;;;10.10;63.18
15678;BME280;7939;50.814;6.368;2023-04-02T09:19:13;100169.94;;;10.07;63.62
15678;BME280;7939;50.814;6.368;2023-04-02T09:21:45;100176.69;;;10.00;63.04
15678;BME280;7939;50.814;6.368;2023-04-02T09:24:13;100177.75;;;10.23;62.92
15678;BME280;7939;50.814;6.368;2023-04-02T09:26:40;100181.81;;;10.05;62.74
15678;BME280;7939;50.814;6.368;2023-04-02T09:29:24;100181.88;;;10.09;63.30
15678;BME280;7939;50.814;6.368;2023-04-02T09:32:00;100190.34;;;10.05;62.95
15678;BME280;7939;50.814;6.368;2023-04-02T09:34:31;100193.66;;;9.95;62.89
15678;BME280;7939;50.814;6.368;2023-04-02T09:37:06;100196.31;;;10.06;63.70
15678;BME280;7939;50.814;6.368;2023-04-02T09:39:33;100207.34;;;10.00;62.91
15678;BME280;7939;50.814;6.368;2023-04-02T09:42:05;100209.78;;;9.92;63.07
15678;BME280;7939;50.814;6.368;2023-04-02T09:44:32;100213.13;;;9.82;63.24
15678;BME280;7939;50.814;6.368;2023-04-02T09:47:00;100218.22;;;9.82;63.14
15678;BME280;7939;50.814;6.368;2023-04-02T09:49:30;100221.69;;;9.92;62.66
15678;BME280;7939;50.814;6.368;2023-04-02T09:52:17;100224.19;;;9.86;62.91
15678;BME280;7939;50.814;6.368;2023-04-02T09:54:44;100233.78;;;10.08;62.76
15678;BME280;7939;50.814;6.368;2023-04-02T09:57:19;100238.81;;;10.00;62.81
15678;BME280;7939;50.814;6.368;2023-04-02T10:00:09;100237.97;;;10.03;62.73
15678;BME280;7939;50.814;6.368;2023-04-02T10:02:37;100252.38;;;9.95;62.85
15678;BME280;7939;50.814;6.368;2023-04-02T10:05:14;100255.91;;;10.09;62.71
15678;BME280;7939;50.814;6.368;2023-04-02T10:07:45;100258.28;;;9.88;63.16
15678;BME280;7939;50.814;6.368;2023-04-02T10:10:22;100262.66;;;10.03;63.14
15678;BME280;7939;50.814;6.368;2023-04-02T10:12:54;100269.25;;;9.82;62.95
15678;BME280;7939;50.814;6.368;2023-04-02T10:15:29;100271.84;;;9.85;62.96
15678;BME280;7939;50.814;6.368;2023-04-02T10:18:04;100284.59;;;9.82;62.92
15678;BME280;7939;50.814;6.368;2023-04-02T10:20:33;100287.06;;;9.75;62.72
15678;BME280;7939;50.814;6.368;2023-04-02T10:23:05;100294.84;;;9.88;63.09
15678;BME280;7939;50.814;6.368;2023-04-02T10:25:40;100311.84;;;9.86;62.43
15678;BME280;7939;50.814;6.368;2023-04-02T10:28:13;100299.75;;;9.71;63.10
15678;BME280;7939;50.814;6.368;2023-04-02T10:30:51;100308.47;;;9.89;62.84
15678;BME280;7939;50.814;6.368;2023-04-02T10:33:24;100305.72;;;9.70;63.01
15678;BME280;7939;50.814;6.368;2023-04-02T10:35:56;100315.28;;;9.87;62.95
15678;BME280;7939;50.814;6.368;2023-04-02T10:38:35;100315.13;;;9.75;63.12
15678;BME280;7939;50.814;6.368;2023-04-02T10:41:13;100319.47;;;9.82;62.91
15678;BME280;7939;50.814;6.368;2023-04-02T10:43:58;100324.50;;;9.77;63.04
15678;BME280;7939;50.814;6.368;2023-04-02T10:46:30;100330.31;;;9.67;62.89
15678;BME280;7939;50.814;6.368;2023-04-02T10:49:07;100328.63;;;9.67;62.33
15678;BME280;7939;50.814;6.368;2023-04-02T10:51:40;100331.44;;;9.87;62.61
15678;BME280;7939;50.814;6.368;2023-04-02T10:57:08;100346.75;;;9.87;62.76
15678;BME280;7939;50.814;6.368;2023-04-02T10:59:39;100347.38;;;9.69;63.04
15678;BME280;7939;50.814;6.368;2023-04-02T11:02:25;100349.97;;;9.72;62.35
15678;BME280;7939;50.814;6.368;2023-04-02T11:04:57;100355.88;;;9.68;62.74
15678;BME280;7939;50.814;6.368;2023-04-02T11:07:27;100343.28;;;9.81;63.01
15678;BME280;7939;50.814;6.368;2023-04-02T11:09:58;100348.47;;;9.87;62.77
15678;BME280;7939;50.814;6.368;2023-04-02T11:12:41;100357.59;;;9.68;62.90
15678;BME280;7939;50.814;6.368;2023-04-02T11:15:14;100361.09;;;9.78;63.07
15678;BME280;7939;50.814;6.368;2023-04-02T11:17:41;100364.47;;;9.77;62.54
15678;BME280;7939;50.814;6.368;2023-04-02T11:20:48;100368.69;;;9.73;62.70
15678;BME280;7939;50.814;6.368;2023-04-02T11:23:20;100365.75;;;9.44;62.11
15678;BME280;7939;50.814;6.368;2023-04-02T11:25:48;100372.00;;;9.67;62.43
15678;BME280;7939;50.814;6.368;2023-04-02T11:28:25;100376.31;;;9.71;62.87
15678;BME280;7939;50.814;6.368;2023-04-02T11:30:53;100376.63;;;9.96;62.53
15678;BME280;7939;50.814;6.368;2023-04-02T11:33:37;100385.19;;;9.99;62.02
15678;BME280;7939;50.814;6.368;2023-04-02T11:39:46;100391.97;;;9.99;62.19
15678;BME280;7939;50.814;6.368;2023-04-02T11:42:26;100399.13;;;9.59;61.87
15678;BME280;7939;50.814;6.368;2023-04-02T11:44:54;100399.28;;;9.71;62.42
15678;BME280;7939;50.814;6.368;2023-04-02T11:47:22;100405.16;;;9.64;61.93
15678;BME280;7939;50.814;6.368;2023-04-02T11:49:59;100417.22;;;9.76;61.94
15678;BME280;7939;50.814;6.368;2023-04-02T11:52:31;100419.84;;;9.81;62.39
15678;BME280;7939;50.814;6.368;2023-04-02T11:55:04;100416.31;;;9.74;62.16
15678;BME280;7939;50.814;6.368;2023-04-02T11:57:50;100419.03;;;9.86;61.89
15678;BME280;7939;50.814;6.368;2023-04-02T12:00:29;100419.88;;;9.84;61.78
15678;BME280;7939;50.814;6.368;2023-04-02T12:03:19;100421.59;;;9.86;62.22
15678;BME280;7939;50.814;6.368;2023-04-02T12:05:59;100433.56;;;9.89;61.91
15678;BME280;7939;50.814;6.368;2023-04-02T12:08:34;100433.59;;;9.92;61.70
15678;BME280;7939;50.814;6.368;2023-04-02T12:11:04;100442.66;;;9.70;61.45
15678;BME280;7939;50.814;6.368;2023-04-02T12:13:52;100440.38;;;9.88;61.50
15678;BME280;7939;50.814;6.368;2023-04-02T12:16:20;100433.56;;;9.90;61.76
15678;BME280;7939;50.814;6.368;2023-04-02T12:18:49;100443.84;;;9.95;61.37
15678;BME280;7939;50.814;6.368;2023-04-02T12:21:20;100443.53;;;9.73;61.50
15678;BME280;7939;50.814;6.368;2023-04-02T12:23:47;100447.22;;;9.92;61.54
15678;BME280;7939;50.814;6.368;2023-04-02T12:26:27;100449.91;;;10.02;61.80
15678;BME280;7939;50.814;6.368;2023-04-02T12:31:57;100454.59;;;9.74;61.77
15678;BME280;7939;50.814;6.368;2023-04-02T12:34:27;100458.22;;;9.87;61.68
15678;BME280;7939;50.814;6.368;2023-04-02T12:36:57;100451.09;;;9.64;61.64
15678;BME280;7939;50.814;6.368;2023-04-02T12:39:26;100451.50;;;9.95;61.49
15678;BME280;7939;50.814;6.368;2023-04-02T12:41:53;100462.66;;;10.02;61.46
15678;BME280;7939;50.814;6.368;2023-04-02T12:44:22;100455.66;;;9.87;61.62
15678;BME280;7939;50.814;6.368;2023-04-02T12:46:49;100461.78;;;9.99;61.93
15678;BME280;7939;50.814;6.368;2023-04-02T12:49:30;100468.53;;;9.96;61.25
15678;BME280;7939;50.814;6.368;2023-04-02T12:52:01;100466.91;;;10.01;61.29
15678;BME280;7939;50.814;6.368;2023-04-02T12:54:28;100476.19;;;9.94;61.05
15678;BME280;7939;50.814;6.368;2023-04-02T13:00:03;100486.03;;;9.68;61.35
15678;BME280;7939;50.814;6.368;2023-04-02T13:02:50;100484.72;;;9.98;61.49
15678;BME280;7939;50.814;6.368;2023-04-02T13:05:33;100494.22;;;10.07;61.28
15678;BME280;7939;50.814;6.368;2023-04-02T13:08:01;100492.44;;;9.99;61.05
15678;BME280;7939;50.814;6.368;2023-04-02T13:10:28;100493.38;;;10.06;61.31
15678;BME280;7939;50.814;6.368;2023-04-02T13:12:57;100503.44;;;9.97;61.47
15678;BME280;7939;50.814;6.368;2023-04-02T13:15:27;100499.28;;;10.05;61.27
15678;BME280;7939;50.814;6.368;2023-04-02T13:18:05;100494.06;;;9.96;61.30
15678;BME280;7939;50.814;6.368;2023-04-02T13:20:35;100500.53;;;9.74;61.16
15678;BME280;7939;50.814;6.368;2023-04-02T13:23:23;100495.53;;;9.80;61.23
15678;BME280;7939;50.814;6.368;2023-04-02T13:25:50;100505.94;;;9.92;60.88
15678;BME280;7939;50.814;6.368;2023-04-02T13:28:17;100501.66;;;9.90;61.02
15678;BME280;7939;50.814;6.368;2023-04-02T13:30:45;100501.56;;;9.84;60.96
15678;BME280;7939;50.814;6.368;2023-04-02T13:33:12;100506.81;;;9.94;61.19
15678;BME280;7939;50.814;6.368;2023-04-02T13:35:40;100507.00;;;10.07;60.89
15678;BME280;7939;50.814;6.368;2023-04-02T13:38:07;100506.94;;;10.05;60.70
15678;BME280;7939;50.814;6.368;2023-04-02T13:40:35;100514.44;;;9.91;61.11
15678;BME280;7939;50.814;6.368;2023-04-02T13:43:02;100521.31;;;9.95;61.21
15678;BME280;7939;50.814;6.368;2023-04-02T13:45:31;100521.34;;;9.98;60.96
15678;BME280;7939;50.814;6.368;2023-04-02T13:47:59;100530.75;;;10.03;60.99
15678;BME280;7939;50.814;6.368;2023-04-02T13:50:27;100538.94;;;9.80;60.98